createdAt,value
2017-06-10T00:00:15.327Z,20.46
2017-06-10T00:00:47.612Z,20.35
2017-06-10T00:01:19.900Z,20.37
2017-06-10T00:01:52.193Z,20.42
2017-06-10T00:02:24.479Z,20.4
2017-06-10T00:02:56.782Z,20.38
2017-06-10T00:03:29.058Z,20.35
2017-06-10T00:04:01.347Z,20.37
2017-06-10T00:04:33.659Z,20.35
2017-06-10T00:05:05.954Z,20.32
2017-06-10T00:05:38.258Z,20.34
2017-06-10T00:06:10.548Z,20.27
2017-06-10T00:06:42.859Z,20.32
2017-06-10T00:07:15.147Z,20.26
2017-06-10T00:07:47.433Z,20.3
2017-06-10T00:08:19.706Z,20.25
2017-06-10T00:08:51.990Z,20.35
2017-06-10T00:09:24.273Z,20.26
2017-06-10T00:09:56.556Z,20.23
2017-06-10T00:10:28.837Z,20.25
2017-06-10T00:11:01.145Z,20.23
2017-06-10T00:11:33.430Z,20.22
2017-06-10T00:12:05.719Z,20.22
2017-06-10T00:12:38.018Z,20.25
2017-06-10T00:13:10.276Z,20.25
2017-06-10T00:13:43.940Z,20.26
2017-06-10T00:14:16.181Z,20.2
2017-06-10T00:14:48.480Z,20.26
2017-06-10T00:15:20.739Z,20.29
2017-06-10T00:15:52.979Z,20.23
2017-06-10T00:16:25.941Z,20.3
2017-06-10T00:16:58.184Z,20.27
2017-06-10T00:17:30.427Z,20.26
2017-06-10T00:18:02.677Z,20.23
2017-06-10T00:18:34.921Z,20.29
2017-06-10T00:19:07.190Z,20.2
2017-06-10T00:19:39.438Z,20.2
2017-06-10T00:20:12.942Z,20.27
2017-06-10T00:20:45.268Z,20.3
2017-06-10T00:21:17.535Z,20.29
2017-06-10T00:21:49.796Z,20.25
2017-06-10T00:22:22.046Z,20.27
2017-06-10T00:22:54.296Z,20.18
2017-06-10T00:23:26.592Z,20.3
2017-06-10T00:23:58.894Z,20.2
2017-06-10T00:24:31.171Z,20.19
2017-06-10T00:25:03.459Z,20.16
2017-06-10T00:25:35.751Z,20.2
2017-06-10T00:26:08.036Z,20.18
2017-06-10T00:26:40.318Z,20.19
2017-06-10T00:27:12.618Z,20.12
2017-06-10T00:27:44.904Z,20.19
2017-06-10T00:28:17.202Z,20.18
2017-06-10T00:28:49.487Z,20.2
2017-06-10T00:29:21.763Z,20.19
2017-06-10T00:29:54.046Z,20.16
2017-06-10T00:30:26.331Z,20.18
2017-06-10T00:30:58.619Z,20.16
2017-06-10T00:31:30.900Z,20.16
2017-06-10T00:32:03.192Z,20.19
2017-06-10T00:32:35.464Z,20.25
2017-06-10T00:33:07.769Z,20.12
2017-06-10T00:33:40.054Z,20.18
2017-06-10T00:34:12.325Z,20.2
2017-06-10T00:34:44.612Z,20.2
2017-06-10T00:35:16.884Z,20.16
2017-06-10T00:35:49.177Z,20.19
2017-06-10T00:36:21.467Z,20.05
2017-06-10T00:36:53.769Z,20.1
2017-06-10T00:37:26.056Z,20.19
2017-06-10T00:37:58.343Z,20.1
2017-06-10T00:38:30.635Z,20.16
2017-06-10T00:39:02.920Z,20.15
2017-06-10T00:39:35.202Z,20.2
2017-06-10T00:40:07.509Z,20.16
2017-06-10T00:40:39.788Z,20.12
2017-06-10T00:41:12.072Z,20.1
2017-06-10T00:41:44.372Z,20.2
2017-06-10T00:42:16.657Z,20.19
2017-06-10T00:42:48.959Z,20.07
2017-06-10T00:43:21.213Z,20.16
2017-06-10T00:43:53.496Z,20.15
2017-06-10T00:44:26.461Z,20.11
2017-06-10T00:44:58.715Z,20.1
2017-06-10T00:45:30.976Z,20.11
2017-06-10T00:46:03.220Z,20.08
2017-06-10T00:46:35.464Z,20.08
2017-06-10T00:47:08.523Z,20.1
2017-06-10T00:47:40.770Z,20.02
2017-06-10T00:48:13.030Z,20.08
2017-06-10T00:48:45.291Z,20.07
2017-06-10T00:49:17.570Z,20.1
2017-06-10T00:49:49.811Z,20.02
2017-06-10T00:50:22.107Z,20.1
2017-06-10T00:50:54.364Z,20.08
2017-06-10T00:51:26.623Z,20.08
2017-06-10T00:51:58.982Z,20.04
2017-06-10T00:52:31.222Z,20.05
2017-06-10T00:53:03.471Z,20.01
2017-06-10T00:53:36.454Z,20.05
2017-06-10T00:54:08.715Z,20.01
2017-06-10T00:54:40.964Z,20.02
2017-06-10T00:55:13.910Z,20.08
2017-06-10T00:55:46.172Z,20.04
2017-06-10T00:56:19.357Z,20.07
2017-06-10T00:56:51.631Z,20.11
2017-06-10T00:57:23.895Z,20.08
2017-06-10T00:57:56.147Z,20.04
2017-06-10T00:58:28.385Z,20.07
2017-06-10T00:59:00.759Z,20.07
2017-06-10T00:59:33.003Z,20.07
2017-06-10T01:00:05.278Z,20.08
2017-06-10T01:00:37.555Z,19.97
2017-06-10T01:01:09.789Z,20.1
2017-06-10T01:01:42.059Z,20.07
2017-06-10T01:02:14.874Z,19.98
2017-06-10T01:02:47.147Z,20.02
2017-06-10T01:03:19.390Z,19.95
2017-06-10T01:03:51.632Z,19.97
2017-06-10T01:04:23.870Z,20.01
2017-06-10T01:04:56.117Z,19.98
2017-06-10T01:05:28.489Z,20.05
2017-06-10T01:06:00.736Z,20.01
2017-06-10T01:06:33.047Z,20.04
2017-06-10T01:07:05.303Z,19.92
2017-06-10T01:07:37.550Z,19.9
2017-06-10T01:08:09.806Z,19.92
2017-06-10T01:08:42.066Z,19.93
2017-06-10T01:09:14.352Z,19.92
2017-06-10T01:09:46.608Z,20.02
2017-06-10T01:10:18.860Z,19.98
2017-06-10T01:10:51.126Z,19.95
2017-06-10T01:11:23.433Z,19.92
2017-06-10T01:11:55.679Z,19.86
2017-06-10T01:12:27.917Z,19.98
2017-06-10T01:13:00.174Z,19.97
2017-06-10T01:13:32.452Z,19.9
2017-06-10T01:14:04.728Z,19.87
2017-06-10T01:14:37.008Z,19.89
2017-06-10T01:15:09.287Z,19.87
2017-06-10T01:15:41.560Z,19.92
2017-06-10T01:16:13.859Z,19.89
2017-06-10T01:16:46.163Z,19.85
2017-06-10T01:17:18.446Z,19.89
2017-06-10T01:17:50.719Z,19.9
2017-06-10T01:18:23.002Z,19.9
2017-06-10T01:18:55.281Z,19.87
2017-06-10T01:19:27.583Z,19.93
2017-06-10T01:19:59.872Z,19.93
2017-06-10T01:20:32.168Z,19.87
2017-06-10T01:21:04.449Z,19.89
2017-06-10T01:21:36.754Z,19.86
2017-06-10T01:22:09.050Z,19.9
2017-06-10T01:22:41.348Z,19.86
2017-06-10T01:23:13.611Z,19.85
2017-06-10T01:23:45.852Z,19.9
2017-06-10T01:24:18.111Z,19.87
2017-06-10T01:24:50.349Z,19.92
2017-06-10T01:25:23.382Z,19.85
2017-06-10T01:25:55.650Z,19.93
2017-06-10T01:26:27.909Z,19.89
2017-06-10T01:27:00.162Z,19.83
2017-06-10T01:27:32.410Z,19.86
2017-06-10T01:28:04.650Z,19.83
2017-06-10T01:28:36.934Z,19.85
2017-06-10T01:29:09.184Z,19.87
2017-06-10T01:29:41.454Z,19.82
2017-06-10T01:30:13.703Z,19.9
2017-06-10T01:30:45.958Z,19.8
2017-06-10T01:31:18.212Z,19.86
2017-06-10T01:31:50.465Z,19.83
2017-06-10T01:32:22.715Z,19.82
2017-06-10T01:32:54.967Z,19.86
2017-06-10T01:33:27.217Z,19.85
2017-06-10T01:33:59.462Z,19.83
2017-06-10T01:34:32.427Z,19.85
2017-06-10T01:35:04.672Z,19.82
2017-06-10T01:35:36.938Z,19.75
2017-06-10T01:36:09.222Z,19.85
2017-06-10T01:36:42.436Z,19.83
2017-06-10T01:37:14.678Z,19.75
2017-06-10T01:37:46.925Z,19.82
2017-06-10T01:38:19.182Z,19.87
2017-06-10T01:38:51.464Z,19.79
2017-06-10T01:39:23.727Z,19.79
2017-06-10T01:39:55.976Z,19.78
2017-06-10T01:40:28.303Z,19.82
2017-06-10T01:41:00.528Z,19.8
2017-06-10T01:41:32.797Z,19.75
2017-06-10T01:42:05.067Z,19.74
2017-06-10T01:42:37.345Z,19.87
2017-06-10T01:43:09.632Z,19.74
2017-06-10T01:43:41.956Z,19.78
2017-06-10T01:44:14.251Z,19.8
2017-06-10T01:44:46.537Z,19.79
2017-06-10T01:45:18.832Z,19.78
2017-06-10T01:45:51.120Z,19.78
2017-06-10T01:46:23.400Z,19.79
2017-06-10T01:46:55.683Z,19.8
2017-06-10T01:47:27.969Z,19.75
2017-06-10T01:48:00.261Z,19.78
2017-06-10T01:48:32.547Z,19.75
2017-06-10T01:49:04.827Z,19.75
2017-06-10T01:49:37.121Z,19.74
2017-06-10T01:50:09.402Z,19.8
2017-06-10T01:50:41.683Z,19.72
2017-06-10T01:51:13.956Z,19.83
2017-06-10T01:51:46.270Z,19.78
2017-06-10T01:52:18.566Z,19.75
2017-06-10T01:52:50.858Z,19.78
2017-06-10T01:53:23.130Z,19.79
2017-06-10T01:53:55.378Z,19.82
2017-06-10T01:54:27.624Z,19.8
2017-06-10T01:54:59.887Z,19.75
2017-06-10T01:55:32.160Z,19.74
2017-06-10T01:56:04.413Z,19.78
2017-06-10T01:56:36.673Z,19.74
2017-06-10T01:57:08.904Z,19.72
2017-06-10T01:57:41.147Z,19.75
2017-06-10T01:58:13.395Z,19.79
2017-06-10T01:58:45.643Z,19.72
2017-06-10T01:59:18.484Z,19.68
2017-06-10T01:59:50.750Z,19.71
2017-06-10T02:00:23.003Z,19.7
2017-06-10T02:00:55.252Z,19.75
2017-06-10T02:01:27.491Z,19.78
2017-06-10T02:01:59.728Z,19.78
2017-06-10T02:02:32.004Z,19.68
2017-06-10T02:03:04.262Z,19.71
2017-06-10T02:03:36.534Z,19.71
2017-06-10T02:04:08.817Z,19.68
2017-06-10T02:04:41.100Z,19.68
2017-06-10T02:05:13.382Z,19.68
2017-06-10T02:05:45.663Z,19.71
2017-06-10T02:06:17.948Z,19.68
2017-06-10T02:06:50.233Z,19.65
2017-06-10T02:07:22.508Z,19.71
2017-06-10T02:07:54.776Z,19.65
2017-06-10T02:08:27.086Z,19.67
2017-06-10T02:08:59.349Z,19.68
2017-06-10T02:09:31.640Z,19.64
2017-06-10T02:10:03.928Z,19.7
2017-06-10T02:10:36.211Z,19.71
2017-06-10T02:11:08.490Z,19.65
2017-06-10T02:11:40.759Z,19.64
2017-06-10T02:12:13.081Z,19.65
2017-06-10T02:12:45.379Z,19.65
2017-06-10T02:13:17.720Z,19.7
2017-06-10T02:13:49.968Z,19.72
2017-06-10T02:14:22.942Z,19.67
2017-06-10T02:14:55.195Z,19.7
2017-06-10T02:15:27.449Z,19.7
2017-06-10T02:15:59.696Z,19.64
2017-06-10T02:16:31.926Z,19.63
2017-06-10T02:17:04.170Z,19.67
2017-06-10T02:17:36.413Z,19.63
2017-06-10T02:18:08.654Z,19.68
2017-06-10T02:18:40.904Z,19.63
2017-06-10T02:19:13.167Z,19.63
2017-06-10T02:19:45.535Z,19.64
2017-06-10T02:20:17.812Z,19.64
2017-06-10T02:20:50.053Z,19.64
2017-06-10T02:21:22.307Z,19.63
2017-06-10T02:21:54.557Z,19.63
2017-06-10T02:22:26.810Z,19.65
2017-06-10T02:22:59.170Z,19.56
2017-06-10T02:23:31.440Z,19.55
2017-06-10T02:24:03.713Z,19.63
2017-06-10T02:24:35.961Z,19.63
2017-06-10T02:25:08.210Z,19.57
2017-06-10T02:25:40.471Z,19.55
2017-06-10T02:26:12.717Z,19.64
2017-06-10T02:26:44.976Z,19.67
2017-06-10T02:27:17.828Z,19.52
2017-06-10T02:27:50.085Z,19.6
2017-06-10T02:28:22.358Z,19.49
2017-06-10T02:28:54.611Z,19.5
2017-06-10T02:29:26.858Z,19.52
2017-06-10T02:29:59.102Z,19.5
2017-06-10T02:30:31.346Z,19.6
2017-06-10T02:31:03.605Z,19.49
2017-06-10T02:31:36.478Z,19.56
2017-06-10T02:32:08.730Z,19.56
2017-06-10T02:32:41.910Z,19.55
2017-06-10T02:33:14.167Z,19.49
2017-06-10T02:33:46.411Z,19.52
2017-06-10T02:34:18.662Z,19.5
2017-06-10T02:34:50.911Z,19.52
2017-06-10T02:35:23.158Z,19.53
2017-06-10T02:35:56.359Z,19.52
2017-06-10T02:36:28.654Z,19.52
2017-06-10T02:37:00.921Z,19.57
2017-06-10T02:37:33.186Z,19.6
2017-06-10T02:38:05.440Z,19.63
2017-06-10T02:38:37.686Z,19.55
2017-06-10T02:39:09.929Z,19.52
2017-06-10T02:39:42.908Z,19.49
2017-06-10T02:40:15.166Z,19.53
2017-06-10T02:40:47.429Z,19.49
2017-06-10T02:41:19.682Z,19.52
2017-06-10T02:41:51.942Z,19.55
2017-06-10T02:42:24.195Z,19.55
2017-06-10T02:42:56.455Z,19.55
2017-06-10T02:43:28.713Z,19.5
2017-06-10T02:44:00.968Z,19.47
2017-06-10T02:44:33.241Z,19.47
2017-06-10T02:45:05.498Z,19.56
2017-06-10T02:45:37.813Z,19.52
2017-06-10T02:46:10.073Z,19.5
2017-06-10T02:46:42.339Z,19.46
2017-06-10T02:47:14.589Z,19.46
2017-06-10T02:47:46.845Z,19.45
2017-06-10T02:48:19.102Z,19.5
2017-06-10T02:48:51.353Z,19.53
2017-06-10T02:49:23.618Z,19.57
2017-06-10T02:49:55.869Z,19.47
2017-06-10T02:50:28.140Z,19.49
2017-06-10T02:51:00.396Z,19.49
2017-06-10T02:51:32.648Z,19.47
2017-06-10T02:52:04.918Z,19.49
2017-06-10T02:52:37.166Z,19.42
2017-06-10T02:53:09.451Z,19.46
2017-06-10T02:53:41.756Z,19.47
2017-06-10T02:54:14.027Z,19.49
2017-06-10T02:54:46.316Z,19.49
2017-06-10T02:55:18.600Z,19.5
2017-06-10T02:55:50.887Z,19.43
2017-06-10T02:56:23.182Z,19.5
2017-06-10T02:56:55.466Z,19.5
2017-06-10T02:57:27.743Z,19.46
2017-06-10T02:58:00.016Z,19.46
2017-06-10T02:58:32.305Z,19.49
2017-06-10T02:59:04.592Z,19.46
2017-06-10T02:59:36.884Z,19.52
2017-06-10T03:00:09.167Z,19.5
2017-06-10T03:00:41.459Z,19.53
2017-06-10T03:01:14.267Z,19.52
2017-06-10T03:01:46.551Z,19.53
2017-06-10T03:02:18.837Z,19.56
2017-06-10T03:02:51.128Z,19.47
2017-06-10T03:03:23.389Z,19.49
2017-06-10T03:03:55.625Z,19.45
2017-06-10T03:04:27.886Z,19.32
2017-06-10T03:05:00.147Z,19.52
2017-06-10T03:05:32.420Z,19.55
2017-06-10T03:06:04.673Z,19.42
2017-06-10T03:06:36.920Z,19.45
2017-06-10T03:07:09.183Z,19.4
2017-06-10T03:07:41.455Z,19.52
2017-06-10T03:08:13.704Z,19.55
2017-06-10T03:08:45.968Z,19.47
2017-06-10T03:09:18.246Z,19.42
2017-06-10T03:09:50.534Z,19.42
2017-06-10T03:10:22.787Z,19.45
2017-06-10T03:10:55.037Z,19.45
2017-06-10T03:11:27.348Z,19.46
2017-06-10T03:12:00.582Z,19.52
2017-06-10T03:12:32.909Z,19.45
2017-06-10T03:13:05.152Z,19.43
2017-06-10T03:13:37.437Z,19.5
2017-06-10T03:14:09.731Z,19.42
2017-06-10T03:14:41.998Z,19.46
2017-06-10T03:15:14.283Z,19.46
2017-06-10T03:15:46.582Z,19.45
2017-06-10T03:16:18.852Z,19.46
2017-06-10T03:16:51.128Z,19.45
2017-06-10T03:17:23.416Z,19.43
2017-06-10T03:17:55.697Z,19.45
2017-06-10T03:18:27.982Z,19.43
2017-06-10T03:19:00.263Z,19.46
2017-06-10T03:19:32.558Z,19.45
2017-06-10T03:20:04.847Z,19.4
2017-06-10T03:20:37.131Z,19.47
2017-06-10T03:21:09.419Z,19.47
2017-06-10T03:21:41.699Z,19.46
2017-06-10T03:22:14.002Z,19.49
2017-06-10T03:22:46.284Z,19.43
2017-06-10T03:23:18.535Z,19.45
2017-06-10T03:23:50.788Z,19.4
2017-06-10T03:24:23.045Z,19.45
2017-06-10T03:24:55.305Z,19.42
2017-06-10T03:25:27.553Z,19.5
2017-06-10T03:25:59.784Z,19.35
2017-06-10T03:26:32.039Z,19.46
2017-06-10T03:27:04.270Z,19.47
2017-06-10T03:27:36.516Z,19.43
2017-06-10T03:28:08.779Z,19.42
2017-06-10T03:28:41.041Z,19.38
2017-06-10T03:29:13.303Z,19.4
2017-06-10T03:29:46.523Z,19.34
2017-06-10T03:30:18.800Z,19.46
2017-06-10T03:30:51.058Z,19.45
2017-06-10T03:31:23.304Z,19.46
2017-06-10T03:31:55.552Z,19.43
2017-06-10T03:32:27.782Z,19.43
2017-06-10T03:33:00.039Z,19.4
2017-06-10T03:33:32.314Z,19.4
2017-06-10T03:34:04.607Z,19.49
2017-06-10T03:34:36.900Z,19.38
2017-06-10T03:35:09.176Z,19.45
2017-06-10T03:35:41.456Z,19.49
2017-06-10T03:36:13.740Z,19.45
2017-06-10T03:36:46.020Z,19.45
2017-06-10T03:37:18.300Z,19.4
2017-06-10T03:37:50.582Z,19.47
2017-06-10T03:38:22.870Z,19.4
2017-06-10T03:38:55.152Z,19.43
2017-06-10T03:39:27.453Z,19.49
2017-06-10T03:39:59.729Z,19.46
2017-06-10T03:40:32.018Z,19.45
2017-06-10T03:41:04.292Z,19.43
2017-06-10T03:41:36.584Z,19.4
2017-06-10T03:42:08.867Z,19.49
2017-06-10T03:42:41.156Z,19.45
2017-06-10T03:43:13.434Z,19.4
2017-06-10T03:43:45.712Z,19.38
2017-06-10T03:44:17.995Z,19.45
2017-06-10T03:44:50.302Z,19.49
2017-06-10T03:45:22.597Z,19.49
2017-06-10T03:45:54.888Z,19.45
2017-06-10T03:46:27.182Z,19.45
2017-06-10T03:46:59.449Z,19.45
2017-06-10T03:47:31.728Z,19.46
2017-06-10T03:48:04.053Z,19.4
2017-06-10T03:48:36.345Z,19.45
2017-06-10T03:49:08.634Z,19.49
2017-06-10T03:49:40.899Z,19.45
2017-06-10T03:50:13.190Z,19.45
2017-06-10T03:50:45.486Z,19.45
2017-06-10T03:51:17.780Z,19.4
2017-06-10T03:51:50.063Z,19.4
2017-06-10T03:52:22.351Z,19.45
2017-06-10T03:52:54.642Z,19.45
2017-06-10T03:53:26.889Z,19.46
2017-06-10T03:53:59.139Z,19.45
2017-06-10T03:54:31.361Z,19.45
2017-06-10T03:55:04.333Z,19.38
2017-06-10T03:55:36.570Z,19.45
2017-06-10T03:56:08.828Z,19.47
2017-06-10T03:56:41.062Z,19.4
2017-06-10T03:57:13.305Z,19.43
2017-06-10T03:57:46.314Z,19.4
2017-06-10T03:58:18.571Z,19.46
2017-06-10T03:58:50.838Z,19.42
2017-06-10T03:59:23.090Z,19.43
2017-06-10T03:59:55.337Z,19.45
2017-06-10T04:00:28.536Z,19.47
2017-06-10T04:01:00.781Z,19.49
2017-06-10T04:01:33.021Z,19.4
2017-06-10T04:02:06.037Z,19.45
2017-06-10T04:02:38.287Z,19.45
2017-06-10T04:03:10.526Z,19.45
2017-06-10T04:03:42.783Z,19.43
2017-06-10T04:04:15.033Z,19.37
2017-06-10T04:04:47.282Z,19.43
2017-06-10T04:05:19.549Z,19.4
2017-06-10T04:05:52.566Z,19.45
2017-06-10T04:06:24.802Z,19.46
2017-06-10T04:06:57.873Z,19.3
2017-06-10T04:07:30.136Z,19.47
2017-06-10T04:08:02.868Z,19.42
2017-06-10T04:08:35.114Z,19.43
2017-06-10T04:09:07.347Z,19.43
2017-06-10T04:09:39.593Z,19.42
2017-06-10T04:10:11.860Z,19.37
2017-06-10T04:10:44.117Z,19.46
2017-06-10T04:11:16.367Z,19.43
2017-06-10T04:11:48.608Z,19.45
2017-06-10T04:12:20.913Z,19.45
2017-06-10T04:12:54.011Z,19.45
2017-06-10T04:13:26.260Z,19.55
2017-06-10T04:13:58.523Z,19.43
2017-06-10T04:14:30.770Z,19.53
2017-06-10T04:15:03.005Z,19.42
2017-06-10T04:15:35.251Z,19.46
2017-06-10T04:16:07.487Z,19.55
2017-06-10T04:16:39.749Z,19.42
2017-06-10T04:17:11.999Z,19.42
2017-06-10T04:17:44.339Z,19.55
2017-06-10T04:18:16.598Z,19.49
2017-06-10T04:18:48.842Z,19.45
2017-06-10T04:19:21.164Z,19.5
2017-06-10T04:19:54.108Z,19.53
2017-06-10T04:20:26.370Z,19.43
2017-06-10T04:20:58.625Z,19.52
2017-06-10T04:21:30.888Z,19.4
2017-06-10T04:22:03.138Z,19.52
2017-06-10T04:22:35.384Z,19.4
2017-06-10T04:23:07.674Z,19.45
2017-06-10T04:23:39.940Z,19.42
2017-06-10T04:24:12.230Z,19.52
2017-06-10T04:24:44.514Z,19.56
2017-06-10T04:25:16.790Z,19.52
2017-06-10T04:25:49.078Z,19.57
2017-06-10T04:26:21.367Z,19.5
2017-06-10T04:26:53.665Z,19.47
2017-06-10T04:27:25.944Z,19.47
2017-06-10T04:27:58.221Z,19.5
2017-06-10T04:28:30.520Z,19.52
2017-06-10T04:29:02.806Z,19.53
2017-06-10T04:29:35.131Z,19.47
2017-06-10T04:30:07.422Z,19.52
2017-06-10T04:30:39.721Z,19.47
2017-06-10T04:31:12.012Z,19.5
2017-06-10T04:31:44.306Z,19.53
2017-06-10T04:32:16.607Z,19.5
2017-06-10T04:32:48.888Z,19.4
2017-06-10T04:33:21.173Z,19.49
2017-06-10T04:33:53.457Z,19.49
2017-06-10T04:34:25.751Z,19.57
2017-06-10T04:34:58.038Z,19.47
2017-06-10T04:35:30.317Z,19.5
2017-06-10T04:36:02.603Z,19.49
2017-06-10T04:36:34.908Z,19.52
2017-06-10T04:37:07.200Z,19.52
2017-06-10T04:37:39.506Z,19.5
2017-06-10T04:38:11.800Z,19.5
2017-06-10T04:38:44.076Z,19.55
2017-06-10T04:39:16.357Z,19.6
2017-06-10T04:39:48.656Z,19.55
2017-06-10T04:40:20.945Z,19.52
2017-06-10T04:40:53.238Z,19.63
2017-06-10T04:41:25.512Z,19.64
2017-06-10T04:41:57.804Z,19.61
2017-06-10T04:42:30.102Z,19.6
2017-06-10T04:43:02.399Z,19.64
2017-06-10T04:43:34.717Z,19.57
2017-06-10T04:44:06.999Z,19.67
2017-06-10T04:44:39.304Z,19.61
2017-06-10T04:45:11.598Z,19.63
2017-06-10T04:45:43.895Z,19.64
2017-06-10T04:46:16.160Z,19.63
2017-06-10T04:46:48.458Z,19.68
2017-06-10T04:47:20.738Z,19.7
2017-06-10T04:47:53.012Z,19.7
2017-06-10T04:48:25.303Z,19.68
2017-06-10T04:48:57.597Z,19.68
2017-06-10T04:49:29.899Z,19.68
2017-06-10T04:50:02.197Z,19.65
2017-06-10T04:50:34.501Z,19.65
2017-06-10T04:51:06.795Z,19.64
2017-06-10T04:51:39.082Z,19.64
2017-06-10T04:52:11.386Z,19.74
2017-06-10T04:52:43.674Z,19.74
2017-06-10T04:53:15.932Z,19.72
2017-06-10T04:53:48.212Z,19.75
2017-06-10T04:54:20.464Z,19.67
2017-06-10T04:54:52.730Z,19.78
2017-06-10T04:55:24.964Z,19.71
2017-06-10T04:55:57.222Z,19.8
2017-06-10T04:56:29.469Z,19.78
2017-06-10T04:57:01.703Z,19.85
2017-06-10T04:57:33.949Z,19.8
2017-06-10T04:58:06.206Z,19.78
2017-06-10T04:58:38.456Z,19.75
2017-06-10T04:59:10.701Z,19.79
2017-06-10T04:59:42.944Z,19.79
2017-06-10T05:00:15.214Z,19.74
2017-06-10T05:00:47.457Z,19.78
2017-06-10T05:01:19.708Z,19.83
2017-06-10T05:01:51.979Z,19.92
2017-06-10T05:02:24.974Z,19.85
2017-06-10T05:02:57.235Z,19.85
2017-06-10T05:03:29.516Z,19.86
2017-06-10T05:04:01.804Z,19.87
2017-06-10T05:04:34.080Z,19.89
2017-06-10T05:05:06.350Z,19.92
2017-06-10T05:05:38.653Z,19.9
2017-06-10T05:06:10.964Z,19.85
2017-06-10T05:06:43.259Z,19.98
2017-06-10T05:07:15.548Z,19.95
2017-06-10T05:07:47.829Z,19.9
2017-06-10T05:08:20.122Z,19.9
2017-06-10T05:08:52.402Z,19.95
2017-06-10T05:09:24.688Z,20.01
2017-06-10T05:09:56.967Z,20.01
2017-06-10T05:10:29.310Z,20.07
2017-06-10T05:11:01.602Z,20.07
2017-06-10T05:11:33.903Z,20.02
2017-06-10T05:12:06.226Z,20.05
2017-06-10T05:12:38.516Z,20.1
2017-06-10T05:13:10.819Z,20.07
2017-06-10T05:13:43.113Z,20.08
2017-06-10T05:14:15.391Z,20.11
2017-06-10T05:14:47.686Z,20.05
2017-06-10T05:15:19.955Z,20.16
2017-06-10T05:15:52.234Z,20.2
2017-06-10T05:16:24.517Z,20.19
2017-06-10T05:16:56.812Z,20.16
2017-06-10T05:17:29.097Z,20.18
2017-06-10T05:18:01.378Z,20.15
2017-06-10T05:18:33.680Z,20.16
2017-06-10T05:19:05.970Z,20.2
2017-06-10T05:19:38.255Z,20.3
2017-06-10T05:20:10.539Z,20.29
2017-06-10T05:20:42.823Z,20.23
2017-06-10T05:21:15.113Z,20.27
2017-06-10T05:21:47.404Z,20.2
2017-06-10T05:22:19.689Z,20.27
2017-06-10T05:22:51.990Z,20.25
2017-06-10T05:23:24.279Z,20.32
2017-06-10T05:23:56.601Z,20.32
2017-06-10T05:24:28.886Z,20.4
2017-06-10T05:25:01.179Z,20.42
2017-06-10T05:25:33.476Z,20.4
2017-06-10T05:26:05.760Z,20.41
2017-06-10T05:26:38.056Z,20.53
2017-06-10T05:27:10.350Z,20.38
2017-06-10T05:27:42.641Z,20.38
2017-06-10T05:28:14.927Z,20.48
2017-06-10T05:28:47.202Z,20.56
2017-06-10T05:29:19.494Z,20.44
2017-06-10T05:29:51.770Z,20.49
2017-06-10T05:30:24.074Z,20.6
2017-06-10T05:30:56.366Z,20.51
2017-06-10T05:31:28.658Z,20.56
2017-06-10T05:32:00.956Z,20.58
2017-06-10T05:32:33.244Z,20.66
2017-06-10T05:33:05.513Z,20.64
2017-06-10T05:33:37.755Z,20.66
2017-06-10T05:34:10.054Z,20.68
2017-06-10T05:34:42.326Z,20.71
2017-06-10T05:35:14.593Z,20.68
2017-06-10T05:35:46.858Z,20.78
2017-06-10T05:36:19.104Z,20.68
2017-06-10T05:36:52.145Z,20.76
2017-06-10T05:37:24.398Z,20.82
2017-06-10T05:37:56.655Z,20.82
2017-06-10T05:38:28.919Z,20.82
2017-06-10T05:39:01.170Z,20.83
2017-06-10T05:39:33.456Z,20.83
2017-06-10T05:40:05.728Z,20.79
2017-06-10T05:40:37.985Z,20.9
2017-06-10T05:41:10.248Z,20.88
2017-06-10T05:41:42.498Z,20.94
2017-06-10T05:42:14.772Z,20.9
2017-06-10T05:42:47.010Z,21.03
2017-06-10T05:43:19.288Z,20.94
2017-06-10T05:43:51.579Z,20.93
2017-06-10T05:44:23.865Z,20.97
2017-06-10T05:44:56.172Z,21.01
2017-06-10T05:45:28.451Z,21.03
2017-06-10T05:46:00.764Z,20.97
2017-06-10T05:46:33.057Z,21.01
2017-06-10T05:47:05.357Z,21.03
2017-06-10T05:47:37.640Z,21.04
2017-06-10T05:48:09.941Z,21.09
2017-06-10T05:48:42.235Z,21.13
2017-06-10T05:49:14.538Z,21.08
2017-06-10T05:49:46.822Z,21.11
2017-06-10T05:50:19.136Z,21.13
2017-06-10T05:50:51.416Z,21.11
2017-06-10T05:51:23.721Z,21.19
2017-06-10T05:51:56.018Z,21.19
2017-06-10T05:52:28.319Z,21.19
2017-06-10T05:53:00.607Z,21.23
2017-06-10T05:53:32.853Z,21.22
2017-06-10T05:54:05.101Z,21.18
2017-06-10T05:54:38.094Z,21.31
2017-06-10T05:55:10.361Z,21.22
2017-06-10T05:55:42.619Z,21.34
2017-06-10T05:56:14.872Z,21.25
2017-06-10T05:56:47.117Z,21.33
2017-06-10T05:57:19.357Z,21.34
2017-06-10T05:57:51.606Z,21.33
2017-06-10T05:58:23.860Z,21.33
2017-06-10T05:58:57.042Z,21.31
2017-06-10T05:59:29.295Z,21.37
2017-06-10T06:00:01.546Z,21.43
2017-06-10T06:00:33.795Z,21.4
2017-06-10T06:01:06.048Z,21.41
2017-06-10T06:01:38.309Z,21.48
2017-06-10T06:02:10.563Z,21.51
2017-06-10T06:02:42.792Z,21.49
2017-06-10T06:03:15.049Z,21.48
2017-06-10T06:03:47.287Z,21.53
2017-06-10T06:04:19.550Z,21.51
2017-06-10T06:04:51.887Z,21.55
2017-06-10T06:05:24.149Z,21.52
2017-06-10T06:05:57.043Z,21.52
2017-06-10T06:06:29.298Z,21.59
2017-06-10T06:07:01.562Z,21.62
2017-06-10T06:07:33.809Z,21.58
2017-06-10T06:08:07.039Z,21.67
2017-06-10T06:08:39.297Z,21.64
2017-06-10T06:09:11.548Z,21.67
2017-06-10T06:09:43.795Z,21.74
2017-06-10T06:10:16.046Z,21.71
2017-06-10T06:10:48.293Z,21.71
2017-06-10T06:11:20.685Z,21.8
2017-06-10T06:11:52.950Z,21.77
2017-06-10T06:12:25.207Z,21.71
2017-06-10T06:12:57.569Z,21.83
2017-06-10T06:13:29.804Z,21.82
2017-06-10T06:14:02.092Z,21.9
2017-06-10T06:14:34.353Z,21.83
2017-06-10T06:15:06.598Z,21.86
2017-06-10T06:15:38.835Z,21.85
2017-06-10T06:16:11.087Z,21.89
2017-06-10T06:16:43.345Z,21.94
2017-06-10T06:17:15.600Z,21.93
2017-06-10T06:17:47.837Z,22.04
2017-06-10T06:18:20.084Z,22
2017-06-10T06:18:52.329Z,21.96
2017-06-10T06:19:24.570Z,22.04
2017-06-10T06:19:56.836Z,22.05
2017-06-10T06:20:29.070Z,22.02
2017-06-10T06:21:02.173Z,22.07
2017-06-10T06:21:34.433Z,22.09
2017-06-10T06:22:06.679Z,22.11
2017-06-10T06:22:38.939Z,22.12
2017-06-10T06:23:11.201Z,22.12
2017-06-10T06:23:43.440Z,22.16
2017-06-10T06:24:15.683Z,22.12
2017-06-10T06:24:47.921Z,22.12
2017-06-10T06:25:20.176Z,22.14
2017-06-10T06:25:52.436Z,22.2
2017-06-10T06:26:24.702Z,22.22
2017-06-10T06:26:56.956Z,22.22
2017-06-10T06:27:29.213Z,22.23
2017-06-10T06:28:01.457Z,22.3
2017-06-10T06:28:34.515Z,22.27
2017-06-10T06:29:06.770Z,22.26
2017-06-10T06:29:39.012Z,22.24
2017-06-10T06:30:11.255Z,22.23
2017-06-10T06:30:43.509Z,22.22
2017-06-10T06:31:16.585Z,22.36
2017-06-10T06:31:48.849Z,22.38
2017-06-10T06:32:21.118Z,22.34
2017-06-10T06:32:53.371Z,22.34
2017-06-10T06:33:26.557Z,22.33
2017-06-10T06:33:58.807Z,22.36
2017-06-10T06:34:31.058Z,22.39
2017-06-10T06:35:03.306Z,22.45
2017-06-10T06:35:35.593Z,22.44
2017-06-10T06:36:07.865Z,22.44
2017-06-10T06:36:40.182Z,22.48
2017-06-10T06:37:12.451Z,22.48
2017-06-10T06:37:44.711Z,22.45
2017-06-10T06:38:16.956Z,22.52
2017-06-10T06:38:49.210Z,22.51
2017-06-10T06:39:21.462Z,22.54
2017-06-10T06:39:53.712Z,22.6
2017-06-10T06:40:25.976Z,22.57
2017-06-10T06:40:58.271Z,22.61
2017-06-10T06:41:30.524Z,22.63
2017-06-10T06:42:02.777Z,22.55
2017-06-10T06:42:35.905Z,22.6
2017-06-10T06:43:08.163Z,22.64
2017-06-10T06:43:41.015Z,22.67
2017-06-10T06:44:14.186Z,22.66
2017-06-10T06:44:46.434Z,22.73
2017-06-10T06:45:18.674Z,22.69
2017-06-10T06:45:50.918Z,22.66
2017-06-10T06:46:23.164Z,22.7
2017-06-10T06:46:56.005Z,22.76
2017-06-10T06:47:29.064Z,22.82
2017-06-10T06:48:01.340Z,22.81
2017-06-10T06:48:33.613Z,22.85
2017-06-10T06:49:06.575Z,22.85
2017-06-10T06:49:38.859Z,22.82
2017-06-10T06:50:11.137Z,22.86
2017-06-10T06:50:43.377Z,22.85
2017-06-10T06:51:15.625Z,22.89
2017-06-10T06:51:47.865Z,22.91
2017-06-10T06:52:20.118Z,22.89
2017-06-10T06:52:52.385Z,22.92
2017-06-10T06:53:24.611Z,22.91
2017-06-10T06:53:56.876Z,22.99
2017-06-10T06:54:29.113Z,23
2017-06-10T06:55:01.402Z,23.01
2017-06-10T06:55:33.659Z,23
2017-06-10T06:56:05.943Z,23.07
2017-06-10T06:56:38.188Z,23.12
2017-06-10T06:57:10.460Z,23.1
2017-06-10T06:57:42.707Z,23.09
2017-06-10T06:58:14.958Z,23.04